Time;durP1;ratioP1;P1;durP2;ratioP2;P2;SDS_P1;SDS_P2;PMS_P1;PMS_P2;Temp;Humidity;BMP_temperature;BMP_pressure;BME280_temperature;BME280_humidity;BME280_pressure;Samples;Min_cycle;Max_cycle;Signal;HPM_P1;HPM_P2
2024/01/28 00:01:31;;;;;;;7.30;3.40;;;;;;;3.48;71.93;97049.63;5009842;28;20211;-75
2024/01/28 00:03:56;;;;;;;5.70;3.33;;;;;;;3.51;72.63;97041.78;5010706;28;20198;-73
2024/01/28 00:06:22;;;;;;;4.57;3.33;;;;;;;3.37;72.93;97038.09;5030219;28;20183;-73
2024/01/28 00:08:47;;;;;;;5.87;3.30;;;;;;;3.51;72.54;97039.22;5030066;28;20266;-72
2024/01/28 00:11:12;;;;;;;4.03;3.30;;;;;;;3.53;72.24;97034.81;5029792;28;20297;-74
2024/01/28 00:13:38;;;;;;;6.50;3.80;;;;;;;3.46;72.87;97029.16;5030175;28;20289;-73
2024/01/28 00:16:03;;;;;;;5.23;3.50;;;;;;;3.48;72.58;97019.63;4996083;28;20194;-74
2024/01/28 00:18:31;;;;;;;6.07;3.50;;;;;;;3.38;72.86;97018.38;5030220;28;20178;-75
2024/01/28 00:20:57;;;;;;;6.10;3.60;;;;;;;3.47;72.99;97024.84;5010184;28;20275;-73
2024/01/28 00:23:22;;;;;;;7.80;3.40;;;;;;;3.38;73.52;97019.22;5028949;28;20189;-73
2024/01/28 00:25:47;;;;;;;4.67;3.33;;;;;;;3.49;73.69;97016.16;5012045;28;20194;-73
2024/01/28 00:28:13;;;;;;;7.80;3.33;;;;;;;3.46;73.86;97010.34;5029882;28;20179;-73
2024/01/28 00:30:38;;;;;;;5.67;3.80;;;;;;;3.55;73.63;97012.50;5032186;28;20223;-74
2024/01/28 00:33:03;;;;;;;4.77;3.43;;;;;;;3.42;74.32;97012.19;5015442;28;20244;-74
2024/01/28 00:35:29;;;;;;;4.97;3.60;;;;;;;3.54;74.03;97009.09;5015917;28;20257;-74
2024/01/28 00:37:57;;;;;;;6.17;3.70;;;;;;;3.53;74.11;97006.56;5014144;28;20556;-73
2024/01/28 00:40:23;;;;;;;6.50;3.40;;;;;;;3.51;74.03;97000.69;5032054;28;20243;-74
2024/01/28 00:42:48;;;;;;;10.20;3.40;;;;;;;3.56;74.68;97004.72;5032637;28;20265;-74
2024/01/28 00:45:14;;;;;;;3.33;2.97;;;;;;;3.53;74.33;97004.84;5033850;28;20182;-74
2024/01/28 00:47:41;;;;;;;8.50;4.17;;;;;;;3.42;74.98;97004.50;5033891;28;20249;-74
2024/01/28 00:50:07;;;;;;;6.53;3.60;;;;;;;3.49;74.88;97005.91;5033124;28;20234;-74
2024/01/28 00:52:32;;;;;;;5.27;3.17;;;;;;;3.46;75.11;97002.63;5033445;28;20575;-74
2024/01/28 00:54:57;;;;;;;4.40;2.80;;;;;;;3.49;74.88;97007.63;5015826;28;20185;-74
2024/01/28 00:57:23;;;;;;;3.90;2.87;;;;;;;3.56;74.83;97007.28;5016196;28;20179;-75
2024/01/28 00:59:48;;;;;;;4.40;3.13;;;;;;;3.49;74.95;97003.31;5031701;28;20290;-74
2024/01/28 01:02:14;;;;;;;4.60;2.90;;;;;;;3.51;75.65;96996.38;5014810;28;20230;-74
2024/01/28 01:04:39;;;;;;;5.83;3.13;;;;;;;3.55;74.95;96995.34;5033376;28;20201;-74
2024/01/28 01:07:04;;;;;;;5.97;3.03;;;;;;;3.64;74.67;96992.38;5027306;28;20222;-74
2024/01/28 01:09:30;;;;;;;4.13;2.90;;;;;;;3.57;74.80;96993.53;5031701;28;20202;-74
2024/01/28 01:11:55;;;;;;;4.93;3.43;;;;;;;3.53;75.28;96986.03;5033042;28;20213;-74
2024/01/28 01:14:20;;;;;;;4.80;3.00;;;;;;;3.69;74.93;96990.41;5033528;28;20645;-75
2024/01/28 01:16:46;;;;;;;5.30;2.73;;;;;;;3.72;74.69;96980.91;5031896;28;20645;-74
2024/01/28 01:19:11;;;;;;;6.80;3.27;;;;;;;3.70;74.73;96981.78;5033408;28;20190;-74
2024/01/28 01:21:36;;;;;;;5.17;2.97;;;;;;;3.77;74.67;96981.50;5032599;28;20219;-74
2024/01/28 01:24:02;;;;;;;5.77;3.70;;;;;;;3.76;74.64;96975.53;4998249;28;20246;-74
2024/01/28 01:26:27;;;;;;;4.00;2.87;;;;;;;3.73;74.95;96982.56;5016416;28;20218;-74
2024/01/28 01:28:52;;;;;;;4.10;3.07;;;;;;;3.79;74.55;96977.97;5018015;28;20235;-74
2024/01/28 01:31:18;;;;;;;5.30;3.00;;;;;;;3.64;74.73;96982.09;5034945;28;20201;-75
2024/01/28 01:33:43;;;;;;;5.20;2.63;;;;;;;3.59;75.09;96978.88;5018109;28;20250;-74
2024/01/28 01:36:08;;;;;;;3.90;3.07;;;;;;;3.68;74.68;96978.47;5032684;28;20184;-75
2024/01/28 01:38:33;;;;;;;3.40;2.43;;;;;;;3.68;75.14;96980.19;5031868;28;20597;-74
2024/01/28 01:40:59;;;;;;;3.80;2.50;;;;;;;3.77;74.76;96981.50;5030986;28;20221;-74
2024/01/28 01:43:24;;;;;;;6.73;2.90;;;;;;;3.77;74.71;96984.09;5032935;28;20209;-74
2024/01/28 01:45:51;;;;;;;6.47;2.23;;;;;;;3.87;73.95;96975.88;5014323;28;20193;-74
2024/01/28 01:48:17;;;;;;;3.70;2.30;;;;;;;3.89;73.94;96978.38;5015397;28;20183;-75
2024/01/28 01:50:43;;;;;;;4.00;2.40;;;;;;;3.79;74.28;96972.81;5014197;28;20268;-74
2024/01/28 01:53:09;;;;;;;2.93;2.37;;;;;;;3.80;73.79;96971.09;5014706;28;20207;-74
2024/01/28 01:55:36;;;;;;;2.93;1.93;;;;;;;3.83;74.05;96970.97;5031314;28;20189;-74
2024/01/28 01:58:02;;;;;;;3.83;2.00;;;;;;;3.91;73.38;96968.88;5013850;28;20579;-74
2024/01/28 02:00:28;;;;;;;3.47;2.23;;;;;;;4.09;72.71;96972.31;5028958;28;20202;-74
2024/01/28 02:02:53;;;;;;;5.33;2.30;;;;;;;4.09;72.77;96950.00;5014611;28;20174;-74
2024/01/28 02:05:19;;;;;;;4.10;2.20;;;;;;;4.11;72.23;96953.31;5032695;28;20194;-74
2024/01/28 02:07:44;;;;;;;5.90;2.80;;;;;;;4.02;72.48;96945.22;5013624;28;20672;-74
2024/01/28 02:10:09;;;;;;;5.17;2.83;;;;;;;4.05;72.23;96950.19;5030431;28;20557;-74
2024/01/28 02:12:35;;;;;;;3.30;2.23;;;;;;;4.05;72.09;96948.47;5032077;28;20200;-74
2024/01/28 02:15:09;;;;;;;4.53;2.10;;;;;;;4.05;72.45;96948.47;5013681;28;20184;-74
2024/01/28 02:17:34;;;;;;;2.10;1.80;;;;;;;3.97;72.39;96948.00;5014697;28;20659;-74
2024/01/28 02:20:00;;;;;;;3.13;1.80;;;;;;;4.03;72.18;96940.00;5031547;28;20186;-74
2024/01/28 02:22:25;;;;;;;4.00;1.90;;;;;;;4.08;71.83;96943.19;5015661;28;20345;-74
2024/01/28 02:24:51;;;;;;;3.87;2.23;;;;;;;4.05;71.85;96935.59;5012140;28;20300;-75
2024/01/28 02:27:16;;;;;;;3.03;1.70;;;;;;;4.08;71.38;96940.63;5013428;28;20183;-74
2024/01/28 02:29:42;;;;;;;3.53;2.07;;;;;;;4.18;71.20;96933.28;5013680;28;20188;-75
2024/01/28 02:32:10;;;;;;;2.97;1.77;;;;;;;4.12;71.68;96938.72;5013685;28;20215;-74
2024/01/28 02:34:35;;;;;;;2.57;1.90;;;;;;;4.10;71.25;96937.97;5026913;28;20176;-74
2024/01/28 02:37:00;;;;;;;2.20;2.00;;;;;;;4.14;71.14;96924.88;5030438;28;20179;-74
2024/01/28 02:39:26;;;;;;;3.33;1.73;;;;;;;4.29;70.51;96931.03;5030563;28;20297;-75
2024/01/28 02:41:51;;;;;;;2.73;1.60;;;;;;;4.36;69.74;96934.13;5029735;28;20249;-75
2024/01/28 02:44:16;;;;;;;3.30;1.50;;;;;;;4.37;69.75;96925.50;5014052;28;20265;-75
2024/01/28 02:46:42;;;;;;;3.20;1.70;;;;;;;4.35;69.31;96927.31;5031563;28;20213;-75
2024/01/28 02:49:07;;;;;;;3.53;1.67;;;;;;;4.38;69.16;96922.03;5027580;28;20245;-75
2024/01/28 02:51:32;;;;;;;4.17;1.73;;;;;;;4.39;69.05;96923.69;5012928;28;20280;-75
2024/01/28 02:53:58;;;;;;;1.70;1.60;;;;;;;4.35;69.12;96919.59;5031462;28;20718;-75
2024/01/28 02:56:24;;;;;;;3.30;1.70;;;;;;;4.42;68.42;96926.13;5028208;28;20179;-75
2024/01/28 02:58:49;;;;;;;1.97;1.43;;;;;;;4.41;68.43;96919.28;5013541;28;20184;-74
2024/01/28 03:01:14;;;;;;;2.67;1.20;;;;;;;4.38;68.25;96917.72;5026622;28;20208;-74
2024/01/28 03:03:40;;;;;;;2.80;1.57;;;;;;;4.33;68.61;96923.97;5030516;28;20211;-75
2024/01/28 03:06:06;;;;;;;2.43;1.60;;;;;;;4.33;68.44;96923.97;5013635;28;20198;-74
2024/01/28 03:08:31;;;;;;;3.17;1.60;;;;;;;4.32;68.34;96923.16;5016003;28;20253;-74
2024/01/28 03:10:57;;;;;;;1.50;1.30;;;;;;;4.25;68.51;96926.94;5012884;28;20697;-74
2024/01/28 03:13:22;;;;;;;3.20;1.30;;;;;;;4.28;68.40;96934.50;5031261;28;20304;-75
2024/01/28 03:15:50;;;;;;;3.73;1.47;;;;;;;4.25;68.18;96932.91;5029648;28;20232;-74
2024/01/28 03:18:15;;;;;;;4.33;1.50;;;;;;;4.25;68.33;96926.94;5031262;28;20177;-74
2024/01/28 03:20:41;;;;;;;1.97;1.30;;;;;;;4.21;68.58;96923.69;5029133;28;20578;-74
2024/01/28 03:23:06;;;;;;;2.53;1.30;;;;;;;4.17;68.18;96927.31;5031022;28;20200;-75
2024/01/28 03:25:31;;;;;;;3.13;1.40;;;;;;;4.17;68.04;96924.75;5012894;28;20609;-74
2024/01/28 03:27:57;;;;;;;1.70;1.13;;;;;;;4.20;68.20;96924.59;5013221;28;20178;-75
2024/01/28 03:30:22;;;;;;;1.80;1.20;;;;;;;4.21;68.23;96926.25;5013587;28;20725;-74
2024/01/28 03:32:47;;;;;;;2.53;1.40;;;;;;;4.21;68.05;96925.41;5029371;28;20202;-74
2024/01/28 03:35:13;;;;;;;1.50;1.30;;;;;;;4.20;67.91;96927.16;5010808;28;20272;-75
2024/01/28 03:37:38;;;;;;;1.87;1.37;;;;;;;4.20;68.01;96926.34;5030904;28;20321;-74
2024/01/28 03:40:05;;;;;;;1.70;1.03;;;;;;;4.17;67.99;96918.78;5011723;28;20214;-75
2024/01/28 03:42:31;;;;;;;2.17;1.10;;;;;;;4.18;67.55;96920.44;5030689;28;20188;-74
2024/01/28 03:44:56;;;;;;;1.30;1.20;;;;;;;4.22;67.20;96916.78;5012829;28;20261;-74
2024/01/28 03:47:21;;;;;;;1.67;1.20;;;;;;;4.26;67.06;96916.59;5013068;28;20202;-74
2024/01/28 03:49:47;;;;;;;1.40;1.10;;;;;;;4.31;66.80;96918.09;5029942;28;20189;-75
2024/01/28 03:52:12;;;;;;;1.27;0.90;;;;;;;4.29;66.43;96920.72;5029244;28;20214;-74
2024/01/28 03:54:37;;;;;;;2.43;1.10;;;;;;;4.32;66.36;96920.56;5030049;28;20193;-74
2024/01/28 03:57:03;;;;;;;1.27;1.17;;;;;;;4.38;66.17;96922.03;5030440;28;20179;-75
2024/01/28 03:59:28;;;;;;;1.10;0.93;;;;;;;4.47;65.95;96924.13;5029182;28;20198;-74
2024/01/28 04:01:54;;;;;;;3.00;1.10;;;;;;;4.48;65.71;96918.06;5011681;28;20688;-74
2024/01/28 04:04:20;;;;;;;1.07;0.97;;;;;;;4.53;65.69;96921.25;5029679;28;20221;-75
2024/01/28 04:06:46;;;;;;;1.17;1.03;;;;;;;4.51;65.31;96923.09;5029157;28;20555;-75
2024/01/28 04:09:11;;;;;;;2.27;1.10;;;;;;;4.53;65.35;96926.41;4995751;28;20193;-75
2024/01/28 04:11:37;;;;;;;2.07;1.30;;;;;;;4.53;65.21;96922.09;5012084;28;20196;-74
2024/01/28 04:14:02;;;;;;;1.07;0.90;;;;;;;4.41;65.37;96917.53;5030180;28;20206;-74
2024/01/28 04:16:27;;;;;;;0.80;0.80;;;;;;;4.49;64.84;96914.59;5029118;28;20179;-74
2024/01/28 04:18:53;;;;;;;1.73;1.10;;;;;;;4.49;64.89;96912.84;5028909;28;21147;-74
2024/01/28 04:21:18;;;;;;;2.33;1.03;;;;;;;4.57;64.07;96912.47;5011713;28;20228;-74
2024/01/28 04:23:46;;;;;;;1.13;0.80;;;;;;;4.61;64.07;96921.72;5029152;28;20175;-75
2024/01/28 04:26:11;;;;;;;0.80;0.80;;;;;;;4.61;63.82;96908.00;4996247;28;20651;-75
2024/01/28 04:28:37;;;;;;;1.43;1.30;;;;;;;4.55;63.78;96922.84;5012482;28;20231;-75
2024/01/28 04:31:02;;;;;;;1.53;0.90;;;;;;;4.50;63.83;96919.66;5028636;28;20292;-75
2024/01/28 04:33:28;;;;;;;1.07;0.93;;;;;;;4.55;63.29;96920.25;5030830;28;20227;-75
2024/01/28 04:35:53;;;;;;;5.37;2.60;;;;;;;4.48;63.18;96924.06;5028715;28;20240;-75
2024/01/28 04:38:19;;;;;;;1.37;1.00;;;;;;;4.59;62.77;96925.25;5012304;28;20216;-74
2024/01/28 04:40:44;;;;;;;1.00;0.90;;;;;;;4.55;62.81;96919.44;4995350;28;20316;-74
2024/01/28 04:43:09;;;;;;;1.40;1.00;;;;;;;4.62;62.55;96925.13;5012178;28;20175;-75
2024/01/28 04:45:35;;;;;;;0.93;0.80;;;;;;;4.62;62.15;96918.22;5012183;28;20171;-74
2024/01/28 04:48:00;;;;;;;2.47;1.20;;;;;;;4.54;62.13;96920.34;5029943;28;20605;-74
2024/01/28 04:50:26;;;;;;;0.87;0.87;;;;;;;4.55;61.87;96919.44;5013634;28;20208;-75
2024/01/28 04:52:51;;;;;;;2.47;0.80;;;;;;;4.58;62.15;96921.84;5029669;28;20285;-74
2024/01/28 04:55:16;;;;;;;1.03;0.87;;;;;;;4.56;61.54;96918.53;5028512;28;20174;-74
2024/01/28 04:57:42;;;;;;;0.97;0.90;;;;;;;4.57;61.20;96917.63;5029820;28;20237;-75
2024/01/28 05:00:10;;;;;;;0.83;0.83;;;;;;;4.57;60.98;96917.63;5011567;28;20215;-75
2024/01/28 05:02:38;;;;;;;0.93;0.70;;;;;;;4.51;60.96;96917.94;5029823;28;20181;-75
2024/01/28 05:05:04;;;;;;;0.70;0.70;;;;;;;4.48;60.84;96918.06;5028471;28;20206;-75
2024/01/28 05:07:29;;;;;;;1.73;0.87;;;;;;;4.42;60.61;96915.84;5029569;28;20268;-74
2024/01/28 05:09:55;;;;;;;1.07;1.07;;;;;;;4.47;60.23;96911.28;5008702;28;20212;-75
2024/01/28 05:12:20;;;;;;;1.27;1.10;;;;;;;4.51;59.68;96912.78;5011834;28;20203;-75
2024/01/28 05:14:46;;;;;;;1.27;1.17;;;;;;;4.59;59.29;96907.25;5029880;28;20616;-75
2024/01/28 05:17:11;;;;;;;1.47;1.20;;;;;;;4.63;58.97;96906.19;5015594;28;20256;-74
2024/01/28 05:19:36;;;;;;;0.70;0.70;;;;;;;4.63;58.57;96907.03;5032754;28;20206;-75
2024/01/28 05:22:02;;;;;;;3.53;0.90;;;;;;;4.58;58.20;96901.25;5031925;28;20236;-75
2024/01/28 05:24:27;;;;;;;0.60;0.60;;;;;;;4.61;57.72;96910.59;5033441;28;20194;-75
2024/01/28 05:26:52;;;;;;;0.70;0.60;;;;;;;4.66;57.26;96904.28;5015266;28;20898;-75
2024/01/28 05:29:18;;;;;;;1.17;1.00;;;;;;;4.79;57.03;96914.78;5015542;28;20282;-75
2024/01/28 05:31:43;;;;;;;1.17;1.07;;;;;;;4.77;56.16;96902.00;5031014;28;20211;-74
2024/01/28 05:34:08;;;;;;;1.00;0.90;;;;;;;4.79;56.09;96902.75;5031903;28;20638;-75
2024/01/28 05:36:34;;;;;;;1.00;0.90;;;;;;;4.79;56.01;96913.06;5032913;28;20189;-74
2024/01/28 05:38:59;;;;;;;2.10;0.77;;;;;;;4.79;55.51;96907.06;5031525;28;20244;-75
2024/01/28 05:41:24;;;;;;;0.63;0.63;;;;;;;4.72;55.49;96911.69;5014578;28;20221;-75
2024/01/28 05:43:50;;;;;;;0.97;0.60;;;;;;;4.73;55.51;96910.78;5018244;28;20678;-74
2024/01/28 05:46:15;;;;;;;0.73;0.60;;;;;;;4.66;55.37;96904.28;5015241;28;20202;-74
2024/01/28 05:48:40;;;;;;;0.83;0.70;;;;;;;4.55;56.35;96909.16;5031406;28;20642;-75
2024/01/28 05:51:06;;;;;;;1.53;0.90;;;;;;;4.50;56.96;96911.09;5030861;28;20205;-73
2024/01/28 05:53:31;;;;;;;1.57;0.87;;;;;;;4.47;56.69;96914.69;5014814;28;20207;-74
2024/01/28 05:55:56;;;;;;;4.03;0.90;;;;;;;4.39;56.90;96910.81;5011844;28;20204;-74
2024/01/28 05:58:22;;;;;;;1.47;0.70;;;;;;;4.32;57.26;96909.44;5014937;28;20174;-73
2024/01/28 06:00:48;;;;;;;2.43;0.80;;;;;;;4.25;56.99;96907.22;5030705;28;20204;-73
2024/01/28 06:03:14;;;;;;;1.87;0.93;;;;;;;4.22;56.63;96912.47;5015823;28;20776;-74
2024/01/28 06:05:39;;;;;;;0.83;0.83;;;;;;;4.28;56.49;96910.53;5015126;28;20717;-74
2024/01/28 06:08:06;;;;;;;2.17;0.90;;;;;;;4.16;56.37;96907.66;5013689;28;20559;-74
2024/01/28 06:10:31;;;;;;;2.00;0.90;;;;;;;4.23;55.65;96910.75;5013823;28;20206;-74
2024/01/28 06:12:56;;;;;;;1.27;0.90;;;;;;;4.19;55.21;96907.50;5032388;28;20221;-75
2024/01/28 06:15:22;;;;;;;0.70;0.70;;;;;;;4.37;54.28;96910.06;5032991;28;20186;-74
2024/01/28 06:17:47;;;;;;;0.83;0.63;;;;;;;4.42;53.74;96905.53;5016887;28;20177;-73
2024/01/28 06:20:13;;;;;;;1.43;0.70;;;;;;;4.47;53.08;96906.97;5034514;28;20210;-75
2024/01/28 06:22:38;;;;;;;0.70;0.70;;;;;;;4.50;52.29;96905.97;4999531;28;20190;-74
2024/01/28 06:25:04;;;;;;;0.50;0.50;;;;;;;4.55;51.48;96902.25;4995484;28;20240;-74
2024/01/28 06:27:29;;;;;;;0.87;0.60;;;;;;;4.63;51.21;96903.63;5013355;28;20184;-74
2024/01/28 06:29:55;;;;;;;0.40;0.40;;;;;;;4.72;51.03;96905.72;5013129;28;20564;-73
2024/01/28 06:32:21;;;;;;;0.63;0.60;;;;;;;4.74;50.91;96906.47;4997927;28;20275;-73
2024/01/28 06:34:47;;;;;;;0.77;0.63;;;;;;;4.79;50.18;96910.47;5030766;28;20538;-74
2024/01/28 06:37:13;;;;;;;1.37;0.70;;;;;;;4.81;50.47;96910.41;5014126;28;20237;-74
2024/01/28 06:39:38;;;;;;;1.83;0.90;;;;;;;4.84;49.90;96913.63;5012184;28;20197;-75
2024/01/28 06:42:04;;;;;;;0.80;0.80;;;;;;;4.86;49.49;96915.28;5013921;28;20204;-74
2024/01/28 06:44:31;;;;;;;0.60;0.60;;;;;;;4.98;49.43;96910.34;5013995;28;20229;-74
2024/01/28 06:46:57;;;;;;;0.50;0.47;;;;;;;4.99;49.00;96906.03;5030613;28;20299;-77
2024/01/28 06:49:22;;;;;;;0.70;0.60;;;;;;;5.04;48.31;96906.63;5013515;28;20205;-74
2024/01/28 06:51:47;;;;;;;0.87;0.60;;;;;;;5.05;48.06;96914.28;5001651;28;20294;-73
2024/01/28 06:54:12;;;;;;;0.53;0.50;;;;;;;5.06;47.97;96909.94;5027125;28;20537;-75
2024/01/28 06:56:38;;;;;;;0.70;0.60;;;;;;;5.21;47.99;96919.44;5026540;28;20192;-75
2024/01/28 06:59:03;;;;;;;0.50;0.50;;;;;;;5.25;48.11;96920.94;5024496;28;20566;-75
2024/01/28 07:01:29;;;;;;;0.70;0.70;;;;;;;5.07;48.07;96920.16;5024813;28;20264;-74
2024/01/28 07:03:54;;;;;;;0.70;0.70;;;;;;;5.15;47.78;96918.94;5013194;28;20188;-75
2024/01/28 07:06:20;;;;;;;0.60;0.60;;;;;;;5.17;47.49;96915.34;5003880;28;20182;-75
2024/01/28 07:08:45;;;;;;;1.07;0.80;;;;;;;5.10;47.39;96916.59;5009724;28;20228;-75
2024/01/28 07:11:11;;;;;;;1.23;0.67;;;;;;;5.19;47.30;96918.69;5007271;28;20227;-75
2024/01/28 07:13:36;;;;;;;0.80;0.80;;;;;;;5.11;46.83;96910.53;5006577;28;20199;-75
2024/01/28 07:16:03;;;;;;;1.03;0.80;;;;;;;5.23;46.16;96915.03;5007700;28;20200;-75
2024/01/28 07:18:29;;;;;;;0.83;0.83;;;;;;;5.33;45.92;96911.06;5013848;28;20600;-75
2024/01/28 07:20:54;;;;;;;0.80;0.80;;;;;;;5.38;46.19;96916.78;5010518;28;20289;-75
2024/01/28 07:23:20;;;;;;;1.33;1.13;;;;;;;5.43;46.25;96921.69;5013359;28;20195;-75
2024/01/28 07:25:45;;;;;;;0.97;0.90;;;;;;;5.47;45.43;96924.94;5008221;28;20656;-75
2024/01/28 07:28:11;;;;;;;1.10;0.90;;;;;;;5.41;45.63;96918.38;5029570;28;20263;-75
2024/01/28 07:30:36;;;;;;;1.20;0.90;;;;;;;5.45;45.75;96919.03;5012508;28;20257;-75
2024/01/28 07:33:01;;;;;;;0.77;0.70;;;;;;;5.49;45.17;96918.81;5011059;28;20225;-74
2024/01/28 07:35:27;;;;;;;0.80;0.80;;;;;;;5.56;44.16;96919.28;5011435;28;20198;-74
2024/01/28 07:37:52;;;;;;;1.10;0.60;;;;;;;5.67;44.20;96914.38;5031225;28;20222;-74
2024/01/28 07:40:18;;;;;;;2.53;1.73;;;;;;;5.74;43.58;96913.13;5000484;28;20371;-75
2024/01/28 07:42:43;;;;;;;11.47;5.40;;;;;;;5.78;43.33;96917.19;5012836;28;20295;-75
2024/01/28 07:45:09;;;;;;;11.63;5.43;;;;;;;5.72;42.92;96917.53;5004408;28;20194;-75
2024/01/28 07:47:35;;;;;;;15.13;7.07;;;;;;;5.90;42.65;96913.09;5025309;28;20208;-76
2024/01/28 07:50:00;;;;;;;4.50;2.80;;;;;;;5.85;42.49;96915.94;4993682;28;20656;-76
2024/01/28 07:52:25;;;;;;;5.37;2.70;;;;;;;6.01;42.60;96910.81;5028255;28;20210;-75
2024/01/28 07:54:51;;;;;;;1.90;1.70;;;;;;;5.96;42.29;96912.81;5030091;28;20581;-74
2024/01/28 07:57:16;;;;;;;3.63;2.57;;;;;;;5.92;41.85;96919.88;5012455;28;20185;-74
2024/01/28 07:59:41;;;;;;;1.57;1.13;;;;;;;6.07;41.86;96904.44;5029893;28;20217;-74
2024/01/28 08:02:07;;;;;;;1.43;1.20;;;;;;;6.20;41.61;96905.44;5030252;28;20312;-74
2024/01/28 08:04:32;;;;;;;1.20;1.00;;;;;;;6.15;41.40;96908.25;5029257;28;20672;-74
2024/01/28 08:06:58;;;;;;;2.80;1.27;;;;;;;6.38;41.34;96911.28;5027969;28;20197;-74
2024/01/28 08:09:23;;;;;;;2.50;1.60;;;;;;;6.38;41.17;96903.53;5003168;28;20186;-74
2024/01/28 08:11:49;;;;;;;1.17;1.00;;;;;;;6.37;41.41;96900.13;5008072;28;20218;-74
2024/01/28 08:14:14;;;;;;;1.63;1.10;;;;;;;6.36;40.86;96897.63;5026396;28;20237;-73
2024/01/28 08:16:39;;;;;;;0.90;0.90;;;;;;;6.56;40.99;96893.91;5003864;28;20179;-74
2024/01/28 08:19:05;;;;;;;1.23;1.00;;;;;;;6.57;41.06;96893.81;5003083;28;20249;-74
2024/01/28 08:21:31;;;;;;;1.07;0.80;;;;;;;6.58;40.71;96898.03;5026897;28;20349;-73
2024/01/28 08:23:56;;;;;;;1.53;1.00;;;;;;;6.72;39.95;96894.66;5009143;28;20281;-74
2024/01/28 08:26:22;;;;;;;1.03;0.83;;;;;;;6.72;40.13;96894.66;5011503;28;20618;-74
2024/01/28 08:28:47;;;;;;;0.90;0.87;;;;;;;6.78;39.78;96892.53;5012279;28;20183;-75
2024/01/28 08:31:12;;;;;;;1.17;0.93;;;;;;;6.85;40.60;96898.16;4995625;28;20563;-74
2024/01/28 08:33:37;;;;;;;1.00;0.63;;;;;;;6.86;39.78;96896.41;5030360;28;20222;-75
2024/01/28 08:36:03;;;;;;;1.07;0.90;;;;;;;7.08;39.69;96902.78;5029288;28;20186;-76
2024/01/28 08:38:30;;;;;;;1.53;1.40;;;;;;;7.05;40.22;96905.53;5012550;28;20183;-75
2024/01/28 08:40:55;;;;;;;2.10;1.60;;;;;;;7.12;39.63;96900.81;5011829;28;20249;-74
2024/01/28 08:43:21;;;;;;;3.87;2.40;;;;;;;7.17;40.40;96898.81;5030384;28;20630;-75
2024/01/28 08:45:46;;;;;;;8.50;3.60;;;;;;;7.24;39.54;96900.06;5030137;28;20618;-75
2024/01/28 08:48:11;;;;;;;8.50;3.60;;;;;;;7.28;39.45;96900.72;5012436;28;20198;-75
2024/01/28 08:50:37;;;;;;;3.63;2.10;;;;;;;7.39;38.96;96899.13;5032964;28;20535;-74
2024/01/28 08:53:04;;;;;;;5.40;2.73;;;;;;;7.39;39.12;96908.63;5032318;28;20741;-75
2024/01/28 08:55:29;;;;;;;3.70;1.73;;;;;;;7.43;39.00;96907.53;4999793;28;20197;-75
2024/01/28 08:57:55;;;;;;;2.17;1.00;;;;;;;7.48;38.70;96907.25;5033998;28;20182;-75
2024/01/28 09:00:20;;;;;;;1.00;0.90;;;;;;;7.74;38.26;96914.19;5004479;28;20205;-75
2024/01/28 09:02:46;;;;;;;2.70;1.60;;;;;;;7.84;39.04;96914.44;5021625;28;20214;-75
2024/01/28 09:05:11;;;;;;;1.47;1.10;;;;;;;7.78;39.05;96914.84;5002163;28;20638;-74
2024/01/28 09:07:36;;;;;;;1.23;0.90;;;;;;;7.77;38.16;96921.75;5032497;28;20233;-75
2024/01/28 09:10:02;;;;;;;3.57;1.30;;;;;;;7.98;38.13;96922.16;5015199;28;20273;-75
2024/01/28 09:12:28;;;;;;;3.60;1.53;;;;;;;8.06;38.18;96919.09;5009772;28;20202;-75
2024/01/28 09:14:53;;;;;;;1.00;0.77;;;;;;;7.92;37.97;96917.38;5015714;28;20195;-74
2024/01/28 09:17:19;;;;;;;1.23;0.87;;;;;;;8.01;37.75;96924.53;5015985;28;20261;-73
2024/01/28 09:19:44;;;;;;;4.67;1.60;;;;;;;8.22;36.79;96919.75;4998861;28;20691;-74
2024/01/28 09:22:09;;;;;;;4.57;1.27;;;;;;;8.32;37.84;96928.56;5033249;28;20210;-74
2024/01/28 09:24:36;;;;;;;1.93;1.20;;;;;;;8.20;36.88;96919.84;5032356;28;20665;-74
2024/01/28 09:27:01;;;;;;;1.80;1.40;;;;;;;8.47;36.59;96919.00;5032189;28;20278;-73
2024/01/28 09:29:27;;;;;;;1.37;0.63;;;;;;;8.37;37.22;96929.13;5015864;28;20270;-74
2024/01/28 09:31:53;;;;;;;2.93;1.10;;;;;;;8.49;36.68;96925.75;5014886;28;20223;-74
2024/01/28 09:34:19;;;;;;;1.20;0.80;;;;;;;8.70;36.48;96926.06;5033290;28;20197;-74
2024/01/28 09:36:44;;;;;;;0.67;0.67;;;;;;;8.68;36.19;96927.94;5015230;28;20214;-74
2024/01/28 09:39:11;;;;;;;1.10;1.00;;;;;;;8.78;36.77;96926.38;5031820;28;20276;-74
2024/01/28 09:41:43;;;;;;;1.57;1.20;;;;;;;8.84;36.59;96921.75;5031603;28;20571;-76
2024/01/28 09:44:08;;;;;;;2.13;1.30;;;;;;;8.79;35.85;96924.63;5000290;28;20278;-74
2024/01/28 09:46:34;;;;;;;1.77;1.63;;;;;;;8.78;36.19;96920.38;5009426;28;20269;-74
2024/01/28 09:48:59;;;;;;;2.07;1.47;;;;;;;9.02;35.92;96931.69;5003601;28;20191;-74
2024/01/28 09:51:25;;;;;;;3.03;2.13;;;;;;;9.04;35.76;96924.63;5031198;28;20264;-74
2024/01/28 09:53:50;;;;;;;1.43;1.30;;;;;;;8.96;35.89;96926.09;5031507;28;20207;-74
2024/01/28 09:56:17;;;;;;;0.70;0.70;;;;;;;9.11;35.74;96929.41;5014314;28;20189;-76
2024/01/28 09:58:43;;;;;;;1.00;0.90;;;;;;;9.30;35.63;96930.63;5015907;28;20186;-76
2024/01/28 10:01:10;;;;;;;0.93;0.87;;;;;;;9.54;35.65;96928.09;5010612;28;20232;-75
2024/01/28 10:03:35;;;;;;;0.80;0.80;;;;;;;9.42;34.83;96926.34;4987398;28;20245;-74
2024/01/28 10:06:01;;;;;;;0.60;0.60;;;;;;;9.56;34.81;96925.38;5022281;28;20202;-75
2024/01/28 10:08:27;;;;;;;1.00;0.80;;;;;;;9.58;35.69;96929.53;5007586;28;20210;-75
2024/01/28 10:10:55;;;;;;;0.60;0.60;;;;;;;9.61;35.10;96936.25;5024868;28;20212;-74
2024/01/28 10:13:21;;;;;;;0.70;0.60;;;;;;;9.70;34.92;96933.00;5010486;28;20235;-74
2024/01/28 10:15:56;;;;;;;1.07;0.90;;;;;;;9.87;34.92;96929.22;4987034;28;21074;-75
2024/01/28 10:18:23;;;;;;;1.57;1.00;;;;;;;9.89;34.77;96928.19;5021538;28;20194;-75
2024/01/28 10:20:49;;;;;;;1.30;1.10;;;;;;;9.92;35.07;96937.50;5006955;28;20213;-75
2024/01/28 10:23:14;;;;;;;0.97;0.90;;;;;;;9.85;35.06;96939.72;5007400;28;20194;-74
2024/01/28 10:25:40;;;;;;;0.80;0.80;;;;;;;9.96;34.67;96931.16;5004911;28;20198;-74
2024/01/28 10:28:06;;;;;;;1.63;0.87;;;;;;;9.95;34.75;96939.88;5026610;28;20194;-74
2024/01/28 10:30:33;;;;;;;0.70;0.70;;;;;;;10.11;34.76;96927.47;5005355;28;20736;-75
2024/01/28 10:32:59;;;;;;;2.73;1.10;;;;;;;10.08;34.80;96934.66;5006083;28;21091;-74
2024/01/28 10:35:25;;;;;;;1.67;0.80;;;;;;;10.06;35.58;96929.56;5010660;28;20186;-75
2024/01/28 10:37:55;;;;;;;1.27;1.17;;;;;;;10.08;35.30;96932.06;5027799;28;20186;-74
2024/01/28 10:40:23;;;;;;;1.33;1.10;;;;;;;10.19;35.48;96925.13;4991624;28;20306;-75
2024/01/28 10:42:49;;;;;;;1.30;1.10;;;;;;;9.98;36.00;96928.44;5006626;28;20175;-75
2024/01/28 10:45:18;;;;;;;1.33;1.23;;;;;;;10.23;35.50;96925.75;5028777;28;20186;-75
2024/01/28 10:47:54;;;;;;;1.07;0.97;;;;;;;10.40;35.52;96920.16;5010682;28;20206;-75
2024/01/28 10:50:21;;;;;;;1.57;1.07;;;;;;;10.37;35.17;96916.97;4999742;28;20206;-75
2024/01/28 10:52:47;;;;;;;1.40;1.00;;;;;;;10.42;35.04;96915.72;5003643;28;20211;-75
2024/01/28 10:55:14;;;;;;;1.00;0.90;;;;;;;10.54;34.70;96916.56;5010097;28;20186;-74
2024/01/28 10:57:39;;;;;;;1.80;0.90;;;;;;;10.54;34.33;96916.56;5026113;28;20187;-75
2024/01/28 11:00:06;;;;;;;1.13;0.90;;;;;;;10.49;35.16;96910.88;5010279;28;20214;-74
2024/01/28 11:02:32;;;;;;;1.40;1.10;;;;;;;10.59;35.10;96903.22;5010701;28;20185;-75
2024/01/28 11:04:58;;;;;;;0.90;0.87;;;;;;;10.69;34.21;96898.97;4995238;28;20274;-77
2024/01/28 11:07:24;;;;;;;0.90;0.90;;;;;;;10.63;34.40;96905.50;5026183;28;20269;-75
2024/01/28 11:09:51;;;;;;;1.03;0.80;;;;;;;10.63;34.03;96896.88;5026280;28;20276;-75
2024/01/28 11:12:17;;;;;;;0.70;0.63;;;;;;;10.91;34.21;96901.63;4996175;28;20205;-75
2024/01/28 11:14:42;;;;;;;0.80;0.77;;;;;;;10.95;33.44;96897.84;4994290;28;20190;-75
2024/01/28 11:17:11;;;;;;;1.40;0.87;;;;;;;11.03;33.89;96892.88;5027474;28;20194;-75
2024/01/28 11:19:36;;;;;;;0.93;0.80;;;;;;;11.18;34.54;96895.25;5029254;28;20182;-75
2024/01/28 11:22:04;;;;;;;1.17;1.07;;;;;;;11.06;34.59;96895.28;5027463;28;20293;-75
2024/01/28 11:24:30;;;;;;;0.80;0.80;;;;;;;11.10;34.37;96890.66;5000291;28;20190;-75
2024/01/28 11:26:58;;;;;;;1.40;1.07;;;;;;;11.06;34.50;96889.25;5010652;28;20204;-74
2024/01/28 11:29:34;;;;;;;1.90;1.10;;;;;;;11.03;34.10;96892.88;4993547;28;20584;-75
2024/01/28 11:32:04;;;;;;;1.27;0.90;;;;;;;11.14;33.43;96886.88;5003785;28;20202;-75
2024/01/28 11:34:30;;;;;;;1.13;0.90;;;;;;;11.25;33.91;96886.88;5009463;28;20189;-75